sensor_id;sensor_type;location;lat;lon;timestamp;temperature;humidity
14723;DHT22;7452;55.594;12.986;2023-04-25T00:01:58;8.80;99.90
14723;DHT22;7452;55.594;12.986;2023-04-25T00:04:27;8.90;99.90
14723;DHT22;7452;55.594;12.986;2023-04-25T00:06:55;8.90;99.90
14723;DHT22;7452;55.594;12.986;2023-04-25T00:09:23;8.80;99.90
14723;DHT22;7452;55.594;12.986;2023-04-25T00:11:49;8.60;99.90
14723;DHT22;7452;55.594;12.986;2023-04-25T00:14:16;8.60;99.90
14723;DHT22;7452;55.594;12.986;2023-04-25T00:16:43;8.70;99.90
14723;DHT22;7452;55.594;12.986;2023-04-25T00:19:10;8.60;99.90
14723;DHT22;7452;55.594;12.986;2023-04-25T00:21:39;8.60;99.90
14723;DHT22;7452;55.594;12.986;2023-04-25T00:24:07;8.50;99.90
14723;DHT22;7452;55.594;12.986;2023-04-25T00:26:34;8.50;99.90
14723;DHT22;7452;55.594;12.986;2023-04-25T00:29:02;8.40;99.90
14723;DHT22;7452;55.594;12.986;2023-04-25T00:31:29;8.40;99.90
14723;DHT22;7452;55.594;12.986;2023-04-25T00:33:55;8.30;99.90
14723;DHT22;7452;55.594;12.986;2023-04-25T00:36:22;8.20;99.90
14723;DHT22;7452;55.594;12.986;2023-04-25T00:38:51;8.30;99.90
14723;DHT22;7452;55.594;12.986;2023-04-25T00:41:19;8.20;99.90
14723;DHT22;7452;55.594;12.986;2023-04-25T00:43:47;8.30;99.90
14723;DHT22;7452;55.594;12.986;2023-04-25T00:46:14;8.30;99.90
14723;DHT22;7452;55.594;12.986;2023-04-25T00:48:41;8.20;99.90
14723;DHT22;7452;55.594;12.986;2023-04-25T00:51:10;8.20;99.90
14723;DHT22;7452;55.594;12.986;2023-04-25T00:53:39;8.20;99.90
14723;DHT22;7452;55.594;12.986;2023-04-25T00:56:07;8.20;99.90
14723;DHT22;7452;55.594;12.986;2023-04-25T00:58:35;8.10;99.90
14723;DHT22;7452;55.594;12.986;2023-04-25T01:01:03;8.10;99.90
14723;DHT22;7452;55.594;12.986;2023-04-25T01:03:31;8.00;99.90
14723;DHT22;7452;55.594;12.986;2023-04-25T01:06:01;8.00;99.90
14723;DHT22;7452;55.594;12.986;2023-04-25T01:08:28;8.00;99.90
14723;DHT22;7452;55.594;12.986;2023-04-25T01:10:55;8.00;99.90
14723;DHT22;7452;55.594;12.986;2023-04-25T01:13:24;7.90;99.90
14723;DHT22;7452;55.594;12.986;2023-04-25T01:15:51;7.90;99.90
14723;DHT22;7452;55.594;12.986;2023-04-25T01:18:18;8.00;99.90
14723;DHT22;7452;55.594;12.986;2023-04-25T01:20:46;7.80;99.90
14723;DHT22;7452;55.594;12.986;2023-04-25T01:23:14;7.80;99.90
14723;DHT22;7452;55.594;12.986;2023-04-25T01:25:42;7.90;99.90
14723;DHT22;7452;55.594;12.986;2023-04-25T01:28:09;7.80;99.90
14723;DHT22;7452;55.594;12.986;2023-04-25T01:30:36;7.80;99.90
14723;DHT22;7452;55.594;12.986;2023-04-25T01:33:03;7.80;99.90
14723;DHT22;7452;55.594;12.986;2023-04-25T01:35:31;7.70;99.90
14723;DHT22;7452;55.594;12.986;2023-04-25T01:37:58;7.60;99.90
14723;DHT22;7452;55.594;12.986;2023-04-25T01:40:27;7.60;99.90
14723;DHT22;7452;55.594;12.986;2023-04-25T01:42:54;7.60;99.90
14723;DHT22;7452;55.594;12.986;2023-04-25T01:45:22;7.60;99.90
14723;DHT22;7452;55.594;12.986;2023-04-25T01:47:49;7.60;99.90
14723;DHT22;7452;55.594;12.986;2023-04-25T01:50:17;7.60;99.90
14723;DHT22;7452;55.594;12.986;2023-04-25T01:52:44;7.50;99.90
14723;DHT22;7452;55.594;12.986;2023-04-25T01:55:11;7.50;99.90
14723;DHT22;7452;55.594;12.986;2023-04-25T01:57:39;7.60;99.90
14723;DHT22;7452;55.594;12.986;2023-04-25T02:00:07;7.50;99.90
14723;DHT22;7452;55.594;12.986;2023-04-25T02:02:35;7.50;99.90
14723;DHT22;7452;55.594;12.986;2023-04-25T02:05:02;7.50;99.90
14723;DHT22;7452;55.594;12.986;2023-04-25T02:07:30;7.50;99.90
14723;DHT22;7452;55.594;12.986;2023-04-25T02:09:56;7.60;99.90
14723;DHT22;7452;55.594;12.986;2023-04-25T02:12:23;7.50;99.90
14723;DHT22;7452;55.594;12.986;2023-04-25T02:14:53;7.40;99.90
14723;DHT22;7452;55.594;12.986;2023-04-25T02:17:20;7.40;99.90
14723;DHT22;7452;55.594;12.986;2023-04-25T02:19:47;7.40;99.90
14723;DHT22;7452;55.594;12.986;2023-04-25T02:22:14;7.40;99.90
14723;DHT22;7452;55.594;12.986;2023-04-25T02:24:41;7.40;99.90
14723;DHT22;7452;55.594;12.986;2023-04-25T02:27:08;7.40;99.90
14723;DHT22;7452;55.594;12.986;2023-04-25T02:29:35;7.40;99.90
14723;DHT22;7452;55.594;12.986;2023-04-25T02:32:05;7.40;99.90
14723;DHT22;7452;55.594;12.986;2023-04-25T02:34:31;7.30;99.90
14723;DHT22;7452;55.594;12.986;2023-04-25T02:36:58;7.40;99.90
14723;DHT22;7452;55.594;12.986;2023-04-25T02:39:25;7.30;99.90
14723;DHT22;7452;55.594;12.986;2023-04-25T02:41:52;7.30;99.90
14723;DHT22;7452;55.594;12.986;2023-04-25T02:44:19;7.30;99.90
14723;DHT22;7452;55.594;12.986;2023-04-25T02:46:46;7.40;99.90
14723;DHT22;7452;55.594;12.986;2023-04-25T02:49:14;7.40;99.90
14723;DHT22;7452;55.594;12.986;2023-04-25T02:51:41;7.50;99.90
14723;DHT22;7452;55.594;12.986;2023-04-25T02:54:08;7.50;99.90
14723;DHT22;7452;55.594;12.986;2023-04-25T02:56:35;7.50;99.90
14723;DHT22;7452;55.594;12.986;2023-04-25T02:59:02;7.50;99.90
14723;DHT22;7452;55.594;12.986;2023-04-25T03:01:29;7.70;99.90
14723;DHT22;7452;55.594;12.986;2023-04-25T03:03:55;7.50;99.90
14723;DHT22;7452;55.594;12.986;2023-04-25T03:06:24;7.50;99.90
14723;DHT22;7452;55.594;12.986;2023-04-25T03:08:51;7.50;99.90
14723;DHT22;7452;55.594;12.986;2023-04-25T03:11:17;7.40;99.90
14723;DHT22;7452;55.594;12.986;2023-04-25T03:13:45;7.50;99.90
14723;DHT22;7452;55.594;12.986;2023-04-25T03:16:12;7.50;99.90
14723;DHT22;7452;55.594;12.986;2023-04-25T03:18:39;7.40;99.90
14723;DHT22;7452;55.594;12.986;2023-04-25T03:21:06;7.40;99.90
14723;DHT22;7452;55.594;12.986;2023-04-25T03:23:34;7.40;99.90
14723;DHT22;7452;55.594;12.986;2023-04-25T03:26:01;7.40;99.90
14723;DHT22;7452;55.594;12.986;2023-04-25T03:28:28;7.40;99.90
14723;DHT22;7452;55.594;12.986;2023-04-25T03:30:55;7.50;99.90
14723;DHT22;7452;55.594;12.986;2023-04-25T03:33:22;7.50;99.90
14723;DHT22;7452;55.594;12.986;2023-04-25T03:35:49;7.50;99.90
14723;DHT22;7452;55.594;12.986;2023-04-25T03:38:16;7.50;99.90
14723;DHT22;7452;55.594;12.986;2023-04-25T03:40:45;7.50;99.90
14723;DHT22;7452;55.594;12.986;2023-04-25T03:43:12;7.50;99.90
14723;DHT22;7452;55.594;12.986;2023-04-25T03:45:39;7.50;99.90
14723;DHT22;7452;55.594;12.986;2023-04-25T03:48:05;7.50;99.90
14723;DHT22;7452;55.594;12.986;2023-04-25T03:50:32;7.50;99.90
14723;DHT22;7452;55.594;12.986;2023-04-25T03:52:59;7.50;99.90
14723;DHT22;7452;55.594;12.986;2023-04-25T03:55:26;7.60;99.90
14723;DHT22;7452;55.594;12.986;2023-04-25T03:57:54;7.60;99.90
14723;DHT22;7452;55.594;12.986;2023-04-25T04:00:22;7.60;99.90
14723;DHT22;7452;55.594;12.986;2023-04-25T04:02:49;7.60;99.90
14723;DHT22;7452;55.594;12.986;2023-04-25T04:05:16;7.50;99.90
14723;DHT22;7452;55.594;12.986;2023-04-25T04:07:43;7.60;99.90
14723;DHT22;7452;55.594;12.986;2023-04-25T04:10:10;7.60;99.90
14723;DHT22;7452;55.594;12.986;2023-04-25T04:12:37;7.60;99.90
14723;DHT22;7452;55.594;12.986;2023-04-25T04:15:07;7.50;99.90
14723;DHT22;7452;55.594;12.986;2023-04-25T04:17:34;7.60;99.90
14723;DHT22;7452;55.594;12.986;2023-04-25T04:20:00;7.60;99.90
14723;DHT22;7452;55.594;12.986;2023-04-25T04:22:28;7.60;99.90
14723;DHT22;7452;55.594;12.986;2023-04-25T04:24:55;7.60;99.90
14723;DHT22;7452;55.594;12.986;2023-04-25T04:27:23;7.60;99.90
14723;DHT22;7452;55.594;12.986;2023-04-25T04:29:50;7.60;99.90
14723;DHT22;7452;55.594;12.986;2023-04-25T04:32:20;7.60;99.90
14723;DHT22;7452;55.594;12.986;2023-04-25T04:34:48;7.60;99.90
14723;DHT22;7452;55.594;12.986;2023-04-25T04:37:15;7.60;99.90
14723;DHT22;7452;55.594;12.986;2023-04-25T04:39:43;7.60;99.90
14723;DHT22;7452;55.594;12.986;2023-04-25T04:42:09;7.60;99.90
14723;DHT22;7452;55.594;12.986;2023-04-25T04:44:37;7.60;99.90
14723;DHT22;7452;55.594;12.986;2023-04-25T04:47:05;7.60;99.90
14723;DHT22;7452;55.594;12.986;2023-04-25T04:49:33;7.60;99.90
14723;DHT22;7452;55.594;12.986;2023-04-25T04:52:00;7.50;99.90
14723;DHT22;7452;55.594;12.986;2023-04-25T04:54:27;7.60;99.90
14723;DHT22;7452;55.594;12.986;2023-04-25T04:56:54;7.50;99.90
14723;DHT22;7452;55.594;12.986;2023-04-25T04:59:21;7.50;99.90
14723;DHT22;7452;55.594;12.986;2023-04-25T05:01:48;7.50;99.90
14723;DHT22;7452;55.594;12.986;2023-04-25T05:04:15;7.50;99.90
14723;DHT22;7452;55.594;12.986;2023-04-25T05:06:43;7.40;99.90
14723;DHT22;7452;55.594;12.986;2023-04-25T05:09:10;7.50;99.90
14723;DHT22;7452;55.594;12.986;2023-04-25T05:11:37;7.50;99.90
14723;DHT22;7452;55.594;12.986;2023-04-25T05:14:04;7.50;99.90
14723;DHT22;7452;55.594;12.986;2023-04-25T05:16:31;7.50;99.90
14723;DHT22;7452;55.594;12.986;2023-04-25T05:18:58;7.50;99.90
14723;DHT22;7452;55.594;12.986;2023-04-25T05:21:25;7.50;99.90
14723;DHT22;7452;55.594;12.986;2023-04-25T05:23:54;7.50;99.90
14723;DHT22;7452;55.594;12.986;2023-04-25T05:26:21;7.50;99.90
14723;DHT22;7452;55.594;12.986;2023-04-25T05:28:48;7.50;99.90
14723;DHT22;7452;55.594;12.986;2023-04-25T05:31:16;7.50;99.90
14723;DHT22;7452;55.594;12.986;2023-04-25T05:33:43;7.50;99.90
14723;DHT22;7452;55.594;12.986;2023-04-25T05:36:10;7.50;99.90
14723;DHT22;7452;55.594;12.986;2023-04-25T05:38:37;7.50;99.90
14723;DHT22;7452;55.594;12.986;2023-04-25T05:41:05;7.50;99.90
14723;DHT22;7452;55.594;12.986;2023-04-25T05:43:32;7.50;99.90
14723;DHT22;7452;55.594;12.986;2023-04-25T05:45:59;7.50;99.90
14723;DHT22;7452;55.594;12.986;2023-04-25T05:48:26;7.50;99.90
14723;DHT22;7452;55.594;12.986;2023-04-25T05:50:53;7.40;99.90
14723;DHT22;7452;55.594;12.986;2023-04-25T05:53:21;7.30;99.90
14723;DHT22;7452;55.594;12.986;2023-04-25T05:55:48;7.30;99.90
14723;DHT22;7452;55.594;12.986;2023-04-25T05:58:16;7.20;99.90
14723;DHT22;7452;55.594;12.986;2023-04-25T06:00:43;7.20;99.90
14723;DHT22;7452;55.594;12.986;2023-04-25T06:03:10;7.10;99.90
14723;DHT22;7452;55.594;12.986;2023-04-25T06:05:39;7.20;99.90
14723;DHT22;7452;55.594;12.986;2023-04-25T06:08:05;7.10;99.90
14723;DHT22;7452;55.594;12.986;2023-04-25T06:10:32;7.10;99.90
14723;DHT22;7452;55.594;12.986;2023-04-25T06:12:59;7.10;99.90
14723;DHT22;7452;55.594;12.986;2023-04-25T06:15:27;7.10;99.90
14723;DHT22;7452;55.594;12.986;2023-04-25T06:17:56;7.10;99.90
14723;DHT22;7452;55.594;12.986;2023-04-25T06:20:23;7.10;99.90
14723;DHT22;7452;55.594;12.986;2023-04-25T06:22:50;7.10;99.90
14723;DHT22;7452;55.594;12.986;2023-04-25T06:25:17;7.10;99.90
14723;DHT22;7452;55.594;12.986;2023-04-25T06:27:44;7.10;99.90
14723;DHT22;7452;55.594;12.986;2023-04-25T06:30:11;7.10;99.90
14723;DHT22;7452;55.594;12.986;2023-04-25T06:32:39;7.10;99.90
14723;DHT22;7452;55.594;12.986;2023-04-25T06:35:07;7.10;99.90
14723;DHT22;7452;55.594;12.986;2023-04-25T06:37:34;7.20;99.90
14723;DHT22;7452;55.594;12.986;2023-04-25T06:40:00;7.10;99.90
14723;DHT22;7452;55.594;12.986;2023-04-25T06:42:28;7.10;99.90
14723;DHT22;7452;55.594;12.986;2023-04-25T06:44:54;7.20;99.90
14723;DHT22;7452;55.594;12.986;2023-04-25T06:47:21;7.20;99.90
14723;DHT22;7452;55.594;12.986;2023-04-25T06:49:50;7.20;99.90
14723;DHT22;7452;55.594;12.986;2023-04-25T06:52:16;7.20;99.90
14723;DHT22;7452;55.594;12.986;2023-04-25T06:54:44;7.20;99.90
14723;DHT22;7452;55.594;12.986;2023-04-25T06:57:11;7.20;99.90
14723;DHT22;7452;55.594;12.986;2023-04-25T06:59:38;7.20;99.90
14723;DHT22;7452;55.594;12.986;2023-04-25T07:02:05;7.20;99.90
14723;DHT22;7452;55.594;12.986;2023-04-25T07:04:32;7.30;99.90
14723;DHT22;7452;55.594;12.986;2023-04-25T07:07:00;7.20;99.90
14723;DHT22;7452;55.594;12.986;2023-04-25T07:09:28;7.30;99.90
14723;DHT22;7452;55.594;12.986;2023-04-25T07:11:55;7.20;99.90
14723;DHT22;7452;55.594;12.986;2023-04-25T07:14:22;7.30;99.90
14723;DHT22;7452;55.594;12.986;2023-04-25T07:16:49;7.30;99.90
14723;DHT22;7452;55.594;12.986;2023-04-25T07:19:16;7.20;99.90
14723;DHT22;7452;55.594;12.986;2023-04-25T07:21:43;7.30;99.90
14723;DHT22;7452;55.594;12.986;2023-04-25T07:24:11;7.20;99.90
14723;DHT22;7452;55.594;12.986;2023-04-25T07:26:38;7.20;99.90
14723;DHT22;7452;55.594;12.986;2023-04-25T07:29:05;7.20;99.90
14723;DHT22;7452;55.594;12.986;2023-04-25T07:31:32;7.20;99.90
14723;DHT22;7452;55.594;12.986;2023-04-25T07:33:59;7.20;99.90
14723;DHT22;7452;55.594;12.986;2023-04-25T07:36:26;7.30;99.90
14723;DHT22;7452;55.594;12.986;2023-04-25T07:38:53;7.30;99.90
14723;DHT22;7452;55.594;12.986;2023-04-25T07:41:21;7.30;99.90
14723;DHT22;7452;55.594;12.986;2023-04-25T07:43:48;7.30;99.90
14723;DHT22;7452;55.594;12.986;2023-04-25T07:46:15;7.30;99.90
14723;DHT22;7452;55.594;12.986;2023-04-25T07:48:42;7.20;99.90
14723;DHT22;7452;55.594;12.986;2023-04-25T07:51:09;7.20;99.90
14723;DHT22;7452;55.594;12.986;2023-04-25T07:53:38;7.10;99.90
14723;DHT22;7452;55.594;12.986;2023-04-25T07:56:06;7.20;99.90
14723;DHT22;7452;55.594;12.986;2023-04-25T07:58:34;7.20;99.90
14723;DHT22;7452;55.594;12.986;2023-04-25T08:01:01;7.20;99.90
14723;DHT22;7452;55.594;12.986;2023-04-25T08:03:28;7.20;99.90
14723;DHT22;7452;55.594;12.986;2023-04-25T08:05:55;7.20;99.90
14723;DHT22;7452;55.594;12.986;2023-04-25T08:08:22;7.20;99.90
14723;DHT22;7452;55.594;12.986;2023-04-25T08:10:49;7.20;99.90
14723;DHT22;7452;55.594;12.986;2023-04-25T08:13:16;7.20;99.90
14723;DHT22;7452;55.594;12.986;2023-04-25T08:15:44;7.20;99.90
14723;DHT22;7452;55.594;12.986;2023-04-25T08:18:11;7.20;99.90
14723;DHT22;7452;55.594;12.986;2023-04-25T08:20:38;7.20;99.90
14723;DHT22;7452;55.594;12.986;2023-04-25T08:23:06;7.20;99.90
14723;DHT22;7452;55.594;12.986;2023-04-25T08:25:33;7.20;99.90
14723;DHT22;7452;55.594;12.986;2023-04-25T08:28:00;7.20;99.90
14723;DHT22;7452;55.594;12.986;2023-04-25T08:30:28;7.10;99.90
14723;DHT22;7452;55.594;12.986;2023-04-25T08:32:56;7.20;99.90
14723;DHT22;7452;55.594;12.986;2023-04-25T08:35:23;7.20;99.90
14723;DHT22;7452;55.594;12.986;2023-04-25T08:37:50;7.30;99.90
14723;DHT22;7452;55.594;12.986;2023-04-25T08:40:17;7.30;99.90
14723;DHT22;7452;55.594;12.986;2023-04-25T08:42:52;7.30;99.90
14723;DHT22;7452;55.594;12.986;2023-04-25T08:45:20;7.30;99.90
14723;DHT22;7452;55.594;12.986;2023-04-25T08:47:47;7.30;99.90
14723;DHT22;7452;55.594;12.986;2023-04-25T08:50:17;7.30;99.90
14723;DHT22;7452;55.594;12.986;2023-04-25T08:52:47;7.40;99.90
14723;DHT22;7452;55.594;12.986;2023-04-25T08:55:15;7.40;99.90
14723;DHT22;7452;55.594;12.986;2023-04-25T08:57:42;7.40;99.90
14723;DHT22;7452;55.594;12.986;2023-04-25T09:00:10;7.50;99.90
14723;DHT22;7452;55.594;12.986;2023-04-25T09:02:39;7.50;99.90
14723;DHT22;7452;55.594;12.986;2023-04-25T09:05:06;7.50;99.90
14723;DHT22;7452;55.594;12.986;2023-04-25T09:07:36;7.60;99.90
14723;DHT22;7452;55.594;12.986;2023-04-25T09:10:04;7.50;99.90
14723;DHT22;7452;55.594;12.986;2023-04-25T09:12:31;7.50;99.90
14723;DHT22;7452;55.594;12.986;2023-04-25T09:15:03;7.50;99.90
14723;DHT22;7452;55.594;12.986;2023-04-25T09:17:31;7.50;99.90
14723;DHT22;7452;55.594;12.986;2023-04-25T09:20:06;7.50;99.90
14723;DHT22;7452;55.594;12.986;2023-04-25T09:22:36;7.50;99.90
14723;DHT22;7452;55.594;12.986;2023-04-25T09:25:07;7.50;99.90
14723;DHT22;7452;55.594;12.986;2023-04-25T09:27:34;7.60;99.90
14723;DHT22;7452;55.594;12.986;2023-04-25T09:30:03;7.60;99.90
14723;DHT22;7452;55.594;12.986;2023-04-25T09:32:30;7.50;99.90
14723;DHT22;7452;55.594;12.986;2023-04-25T09:34:57;7.60;99.90
14723;DHT22;7452;55.594;12.986;2023-04-25T09:37:25;7.60;99.90
14723;DHT22;7452;55.594;12.986;2023-04-25T09:39:55;7.70;99.90
14723;DHT22;7452;55.594;12.986;2023-04-25T09:42:25;7.80;99.90
14723;DHT22;7452;55.594;12.986;2023-04-25T09:44:53;7.80;99.90
14723;DHT22;7452;55.594;12.986;2023-04-25T09:47:22;7.70;99.90
14723;DHT22;7452;55.594;12.986;2023-04-25T09:49:50;7.70;99.90
14723;DHT22;7452;55.594;12.986;2023-04-25T09:52:19;7.70;99.90
14723;DHT22;7452;55.594;12.986;2023-04-25T09:54:47;7.70;99.90
14723;DHT22;7452;55.594;12.986;2023-04-25T09:57:17;7.70;99.90
14723;DHT22;7452;55.594;12.986;2023-04-25T09:59:45;7.60;99.90
14723;DHT22;7452;55.594;12.986;2023-04-25T10:02:14;7.60;99.90
14723;DHT22;7452;55.594;12.986;2023-04-25T10:04:41;7.60;99.90
14723;DHT22;7452;55.594;12.986;2023-04-25T10:07:09;7.60;99.90
14723;DHT22;7452;55.594;12.986;2023-04-25T10:09:37;7.70;99.90
14723;DHT22;7452;55.594;12.986;2023-04-25T10:12:06;7.70;99.90
14723;DHT22;7452;55.594;12.986;2023-04-25T10:14:35;7.70;99.90
14723;DHT22;7452;55.594;12.986;2023-04-25T10:17:02;7.80;99.90
14723;DHT22;7452;55.594;12.986;2023-04-25T10:19:29;7.80;99.90
14723;DHT22;7452;55.594;12.986;2023-04-25T10:22:04;7.90;99.90
14723;DHT22;7452;55.594;12.986;2023-04-25T10:24:32;7.90;99.90
14723;DHT22;7452;55.594;12.986;2023-04-25T10:27:00;7.90;99.90
14723;DHT22;7452;55.594;12.986;2023-04-25T10:29:28;8.00;99.90
14723;DHT22;7452;55.594;12.986;2023-04-25T10:31:57;8.10;99.90
14723;DHT22;7452;55.594;12.986;2023-04-25T10:34:25;8.10;99.90
14723;DHT22;7452;55.594;12.986;2023-04-25T10:37:03;8.20;99.90
14723;DHT22;7452;55.594;12.986;2023-04-25T10:39:32;8.20;99.90
14723;DHT22;7452;55.594;12.986;2023-04-25T10:42:02;8.30;99.90
14723;DHT22;7452;55.594;12.986;2023-04-25T10:44:30;8.30;99.90
14723;DHT22;7452;55.594;12.986;2023-04-25T10:46:59;8.20;99.90
14723;DHT22;7452;55.594;12.986;2023-04-25T10:49:34;8.30;99.90
14723;DHT22;7452;55.594;12.986;2023-04-25T10:52:18;8.30;99.90
14723;DHT22;7452;55.594;12.986;2023-04-25T10:54:51;8.40;99.90
14723;DHT22;7452;55.594;12.986;2023-04-25T10:57:31;8.40;99.90
14723;DHT22;7452;55.594;12.986;2023-04-25T11:00:05;8.40;99.90
14723;DHT22;7452;55.594;12.986;2023-04-25T11:02:41;8.40;99.90
14723;DHT22;7452;55.594;12.986;2023-04-25T11:05:08;8.40;99.90
14723;DHT22;7452;55.594;12.986;2023-04-25T11:07:39;8.40;99.90
14723;DHT22;7452;55.594;12.986;2023-04-25T11:10:09;8.50;99.90
14723;DHT22;7452;55.594;12.986;2023-04-25T11:12:36;8.60;99.90
14723;DHT22;7452;55.594;12.986;2023-04-25T11:15:05;8.40;99.90
14723;DHT22;7452;55.594;12.986;2023-04-25T11:17:33;8.50;99.90
14723;DHT22;7452;55.594;12.986;2023-04-25T11:20:01;8.60;99.90
14723;DHT22;7452;55.594;12.986;2023-04-25T11:22:32;8.70;99.90
14723;DHT22;7452;55.594;12.986;2023-04-25T11:25:05;8.70;99.90
14723;DHT22;7452;55.594;12.986;2023-04-25T11:27:32;8.70;99.90
14723;DHT22;7452;55.594;12.986;2023-04-25T11:29:59;8.70;99.90
14723;DHT22;7452;55.594;12.986;2023-04-25T11:32:26;8.50;99.90
14723;DHT22;7452;55.594;12.986;2023-04-25T11:34:52;8.40;99.90
14723;DHT22;7452;55.594;12.986;2023-04-25T11:37:21;8.50;99.90
14723;DHT22;7452;55.594;12.986;2023-04-25T11:39:48;8.60;99.90
14723;DHT22;7452;55.594;12.986;2023-04-25T11:42:15;8.60;99.90
14723;DHT22;7452;55.594;12.986;2023-04-25T11:44:42;8.60;99.90
14723;DHT22;7452;55.594;12.986;2023-04-25T11:47:10;8.60;99.90
14723;DHT22;7452;55.594;12.986;2023-04-25T11:49:36;8.50;99.90
14723;DHT22;7452;55.594;12.986;2023-04-25T11:52:06;8.50;99.90
14723;DHT22;7452;55.594;12.986;2023-04-25T11:54:36;8.50;99.90
14723;DHT22;7452;55.594;12.986;2023-04-25T11:57:03;8.50;99.90
14723;DHT22;7452;55.594;12.986;2023-04-25T11:59:30;8.50;99.90
14723;DHT22;7452;55.594;12.986;2023-04-25T12:01:57;8.50;99.90
14723;DHT22;7452;55.594;12.986;2023-04-25T12:04:30;8.60;99.90
14723;DHT22;7452;55.594;12.986;2023-04-25T12:06:57;8.60;99.90
14723;DHT22;7452;55.594;12.986;2023-04-25T12:09:29;8.60;99.90
14723;DHT22;7452;55.594;12.986;2023-04-25T12:12:00;8.70;99.90
14723;DHT22;7452;55.594;12.986;2023-04-25T12:14:29;8.70;99.90
14723;DHT22;7452;55.594;12.986;2023-04-25T12:16:58;8.70;99.90
14723;DHT22;7452;55.594;12.986;2023-04-25T12:19:25;8.70;99.90
14723;DHT22;7452;55.594;12.986;2023-04-25T12:21:52;8.60;99.90
14723;DHT22;7452;55.594;12.986;2023-04-25T12:24:22;8.70;99.90
14723;DHT22;7452;55.594;12.986;2023-04-25T12:26:52;8.70;99.90
14723;DHT22;7452;55.594;12.986;2023-04-25T12:29:23;8.60;99.90
14723;DHT22;7452;55.594;12.986;2023-04-25T12:31:51;8.70;99.90
14723;DHT22;7452;55.594;12.986;2023-04-25T12:34:18;8.70;99.90
14723;DHT22;7452;55.594;12.986;2023-04-25T12:36:45;8.70;99.90
14723;DHT22;7452;55.594;12.986;2023-04-25T12:39:15;8.80;99.90
14723;DHT22;7452;55.594;12.986;2023-04-25T12:41:42;8.80;99.90
14723;DHT22;7452;55.594;12.986;2023-04-25T12:44:10;8.70;99.90
14723;DHT22;7452;55.594;12.986;2023-04-25T12:46:38;8.80;99.90
14723;DHT22;7452;55.594;12.986;2023-04-25T12:49:06;8.90;99.90
14723;DHT22;7452;55.594;12.986;2023-04-25T12:51:33;9.00;99.90
14723;DHT22;7452;55.594;12.986;2023-04-25T12:54:00;9.10;99.90
14723;DHT22;7452;55.594;12.986;2023-04-25T12:56:28;9.10;99.90
14723;DHT22;7452;55.594;12.986;2023-04-25T12:58:55;9.00;99.90
14723;DHT22;7452;55.594;12.986;2023-04-25T13:01:23;9.00;99.90
14723;DHT22;7452;55.594;12.986;2023-04-25T13:03:51;9.00;99.90
14723;DHT22;7452;55.594;12.986;2023-04-25T13:06:19;9.00;99.90
14723;DHT22;7452;55.594;12.986;2023-04-25T13:08:46;8.90;99.90
14723;DHT22;7452;55.594;12.986;2023-04-25T13:11:13;9.00;99.90
14723;DHT22;7452;55.594;12.986;2023-04-25T13:13:41;9.10;99.90
14723;DHT22;7452;55.594;12.986;2023-04-25T13:16:08;8.80;99.90
14723;DHT22;7452;55.594;12.986;2023-04-25T13:18:36;8.80;99.90
14723;DHT22;7452;55.594;12.986;2023-04-25T13:21:04;8.80;99.90
14723;DHT22;7452;55.594;12.986;2023-04-25T13:23:31;8.70;99.90
14723;DHT22;7452;55.594;12.986;2023-04-25T13:25:58;8.90;99.90
14723;DHT22;7452;55.594;12.986;2023-04-25T13:28:27;8.90;99.90
14723;DHT22;7452;55.594;12.986;2023-04-25T13:30:54;9.10;99.90
14723;DHT22;7452;55.594;12.986;2023-04-25T13:33:21;9.00;99.90
14723;DHT22;7452;55.594;12.986;2023-04-25T13:35:49;9.00;99.90
14723;DHT22;7452;55.594;12.986;2023-04-25T13:38:21;9.10;99.90
14723;DHT22;7452;55.594;12.986;2023-04-25T13:40:48;9.00;99.90
14723;DHT22;7452;55.594;12.986;2023-04-25T13:43:15;8.90;99.90
14723;DHT22;7452;55.594;12.986;2023-04-25T13:45:42;8.80;99.90
14723;DHT22;7452;55.594;12.986;2023-04-25T13:48:09;8.90;99.90
14723;DHT22;7452;55.594;12.986;2023-04-25T13:50:36;9.00;99.90
14723;DHT22;7452;55.594;12.986;2023-04-25T13:53:03;9.10;99.90
14723;DHT22;7452;55.594;12.986;2023-04-25T13:55:31;9.10;99.90
14723;DHT22;7452;55.594;12.986;2023-04-25T13:57:58;9.20;99.90
14723;DHT22;7452;55.594;12.986;2023-04-25T14:00:33;9.20;99.90
14723;DHT22;7452;55.594;12.986;2023-04-25T14:02:59;9.10;99.90
14723;DHT22;7452;55.594;12.986;2023-04-25T14:05:30;9.00;99.90
14723;DHT22;7452;55.594;12.986;2023-04-25T14:07:57;9.00;99.90
14723;DHT22;7452;55.594;12.986;2023-04-25T14:10:24;9.20;99.90
14723;DHT22;7452;55.594;12.986;2023-04-25T14:12:52;9.30;99.90
14723;DHT22;7452;55.594;12.986;2023-04-25T14:15:19;9.50;99.90
14723;DHT22;7452;55.594;12.986;2023-04-25T14:17:46;10.10;99.90
14723;DHT22;7452;55.594;12.986;2023-04-25T14:20:13;10.70;99.90
14723;DHT22;7452;55.594;12.986;2023-04-25T14:22:40;10.60;99.90
14723;DHT22;7452;55.594;12.986;2023-04-25T14:25:09;10.30;99.90
14723;DHT22;7452;55.594;12.986;2023-04-25T14:27:36;9.90;99.90
14723;DHT22;7452;55.594;12.986;2023-04-25T14:30:05;9.50;99.90
14723;DHT22;7452;55.594;12.986;2023-04-25T14:32:34;9.30;99.90
14723;DHT22;7452;55.594;12.986;2023-04-25T14:35:01;9.10;99.90
14723;DHT22;7452;55.594;12.986;2023-04-25T14:37:28;9.20;99.90
14723;DHT22;7452;55.594;12.986;2023-04-25T14:39:55;9.10;99.90
14723;DHT22;7452;55.594;12.986;2023-04-25T14:42:22;9.20;99.90
14723;DHT22;7452;55.594;12.986;2023-04-25T14:44:49;9.10;99.90
14723;DHT22;7452;55.594;12.986;2023-04-25T14:47:17;9.10;99.90
14723;DHT22;7452;55.594;12.986;2023-04-25T14:49:44;9.30;99.90
14723;DHT22;7452;55.594;12.986;2023-04-25T14:52:16;9.40;99.90
14723;DHT22;7452;55.594;12.986;2023-04-25T14:54:43;9.80;99.90
14723;DHT22;7452;55.594;12.986;2023-04-25T14:57:10;10.10;99.90
14723;DHT22;7452;55.594;12.986;2023-04-25T14:59:37;10.00;99.90
14723;DHT22;7452;55.594;12.986;2023-04-25T15:02:05;9.80;99.90
14723;DHT22;7452;55.594;12.986;2023-04-25T15:04:34;9.50;99.90
14723;DHT22;7452;55.594;12.986;2023-04-25T15:07:00;9.60;99.90
14723;DHT22;7452;55.594;12.986;2023-04-25T15:09:28;9.40;99.90
14723;DHT22;7452;55.594;12.986;2023-04-25T15:11:55;9.30;99.90
14723;DHT22;7452;55.594;12.986;2023-04-25T15:14:22;9.20;99.90
14723;DHT22;7452;55.594;12.986;2023-04-25T15:16:49;9.00;99.90
14723;DHT22;7452;55.594;12.986;2023-04-25T15:19:15;9.00;99.90
14723;DHT22;7452;55.594;12.986;2023-04-25T15:21:44;8.90;99.90
14723;DHT22;7452;55.594;12.986;2023-04-25T15:24:11;8.90;99.90
14723;DHT22;7452;55.594;12.986;2023-04-25T15:26:39;8.90;99.90
14723;DHT22;7452;55.594;12.986;2023-04-25T15:29:06;8.90;99.90
14723;DHT22;7452;55.594;12.986;2023-04-25T15:31:33;8.90;99.90
14723;DHT22;7452;55.594;12.986;2023-04-25T15:34:00;8.90;99.90
14723;DHT22;7452;55.594;12.986;2023-04-25T15:36:27;8.90;99.90
14723;DHT22;7452;55.594;12.986;2023-04-25T15:38:56;9.00;99.90
14723;DHT22;7452;55.594;12.986;2023-04-25T15:41:23;9.10;99.90
14723;DHT22;7452;55.594;12.986;2023-04-25T15:43:52;9.00;99.90
14723;DHT22;7452;55.594;12.986;2023-04-25T15:46:19;9.00;99.90
14723;DHT22;7452;55.594;12.986;2023-04-25T15:48:46;9.10;99.90